Airfield :
LOGIN :

Register | Disclaimer

   EN    FR    IT 

 










Legend :    VFR   Marginal VFR   IFR   Intensive IFR   Very Intensive IFR
Visi :
Ceiling :
>= 8 km
>= 3000ft
5 to 8 km
1000 to 3000 ft
1500m to 5 km
500 to 1000 ft
800 to 1500m
200 to 500 ft
< 800m
< 200 ft
Symbols :   Thunderstorms  Fog  Heavy snow  Heavy precipitations  Wind > 20 kt
SIGMETs :     Misc.  Thunderstorms  Icing  Turbulence  Mountain Waves  Volcanic Ashes







- Airport Elevation : 0 ft


ETEB - Ansbach Army Heliport

CURRENT METAR :
  • 141356Z AUTO 23009G20KT 9999 BKN047 04/M02 A2948 RMK AO2 SLP010 T00441025 $

EXPIRED METARs :
  • 141256Z AUTO 23016G23KT 9999 FEW047 04/M03 A2949 RMK AO2 PK WND 24028/07 SLP016 T00411027 $
  • 141156Z AUTO 25016G25KT 9999 SCT040 04/M02 A2951 RMK AO2 PK WND 26030/31 SLP022 70016 T00431017 10046 20023 58003 $

TAF TAF ETEB
Valid from the 14 at 14:00 until the 15 at 20:00 UTC


141410Z 1414/1520 25015G20KT 9999 BKN040 620408 QNH2941INS
BECMG 1417/1418 23015G25KT 8000 -SHRA BKN020 610309 611206 QNH2938INS
BECMG 1419/1420 22012G18KT 9000 -SHRA BKN010 610309 611206 QNH2929INS
TEMPO 1420/1424 SCT010 BKN020
BECMG 1423/1424 19012G18KT 8000 -SHRA OVC006 610309 611206 QNH2928INS
BECMG 1503/1504 25015G25KT 9000 -RASN OVC012 610309 611206 QNH2932INS
BECMG 1504/1505 25015G20KT 9999 NSW SCT010 BKN020 610309 611206 QNH2934INS
BECMG 1515/1516 24012G20KT 9000 -RASN BKN010 610309 611206 QNH2947INS
BECMG 1518/1519 24012KT 9000 -SHRA BKN008 610309 611206 QNH2953INS TX06/1414Z TN02/1503Z
No reported NOTAMs for that airfield.



MET'MAP, your aeronautical weather chart ! - Copyright ORBIFLY December 2007 - Disclaimer

ORBIFLY MET'MAP TEAM :

Programming & Development : Alexandra Zaïnal
Concept & Development : Baudouin d'Aumeries
Co-Development & Prog : Marc-Olivier Méhu
Technical & hardware support : Manuel Goepfert

Contact : metmap@orbifly.com




SOURCES & CREDITS :

   NOAA